sensor_id;sensor_type;location;lat;lon;timestamp;temperature;humidity
2162;DHT22;1087;50.226;8.682;2023-05-10T00:00:13;17.60;99.90
2162;DHT22;1087;50.226;8.682;2023-05-10T00:02:38;17.60;99.90
2162;DHT22;1087;50.226;8.682;2023-05-10T00:05:05;17.50;99.90
2162;DHT22;1087;50.226;8.682;2023-05-10T00:07:30;17.50;99.90
2162;DHT22;1087;50.226;8.682;2023-05-10T00:09:56;17.50;99.90
2162;DHT22;1087;50.226;8.682;2023-05-10T00:12:21;17.40;99.90
2162;DHT22;1087;50.226;8.682;2023-05-10T00:14:47;17.40;99.90
2162;DHT22;1087;50.226;8.682;2023-05-10T00:17:12;17.30;99.90
2162;DHT22;1087;50.226;8.682;2023-05-10T00:19:38;17.20;99.90
2162;DHT22;1087;50.226;8.682;2023-05-10T00:22:04;17.10;99.90
2162;DHT22;1087;50.226;8.682;2023-05-10T00:24:29;17.10;99.90
2162;DHT22;1087;50.226;8.682;2023-05-10T00:26:55;17.20;99.90
2162;DHT22;1087;50.226;8.682;2023-05-10T00:29:20;17.30;99.90
2162;DHT22;1087;50.226;8.682;2023-05-10T00:31:46;17.30;99.90
2162;DHT22;1087;50.226;8.682;2023-05-10T00:34:11;17.40;99.90
2162;DHT22;1087;50.226;8.682;2023-05-10T00:36:37;17.30;99.90
2162;DHT22;1087;50.226;8.682;2023-05-10T00:39:02;17.30;99.90
2162;DHT22;1087;50.226;8.682;2023-05-10T00:41:29;17.30;99.90
2162;DHT22;1087;50.226;8.682;2023-05-10T00:43:57;17.30;99.90
2162;DHT22;1087;50.226;8.682;2023-05-10T00:46:22;17.30;99.90
2162;DHT22;1087;50.226;8.682;2023-05-10T00:48:48;17.10;99.90
2162;DHT22;1087;50.226;8.682;2023-05-10T00:51:14;17.10;99.90
2162;DHT22;1087;50.226;8.682;2023-05-10T00:53:40;17.10;99.90
2162;DHT22;1087;50.226;8.682;2023-05-10T00:56:06;17.10;99.90
2162;DHT22;1087;50.226;8.682;2023-05-10T00:58:31;17.00;99.90
2162;DHT22;1087;50.226;8.682;2023-05-10T01:00:58;17.00;99.90
2162;DHT22;1087;50.226;8.682;2023-05-10T01:03:25;16.90;99.90
2162;DHT22;1087;50.226;8.682;2023-05-10T01:05:51;16.90;99.90
2162;DHT22;1087;50.226;8.682;2023-05-10T01:08:16;16.90;99.90
2162;DHT22;1087;50.226;8.682;2023-05-10T01:10:43;17.00;99.90
2162;DHT22;1087;50.226;8.682;2023-05-10T01:13:09;16.90;99.90
2162;DHT22;1087;50.226;8.682;2023-05-10T01:15:35;16.80;99.90
2162;DHT22;1087;50.226;8.682;2023-05-10T01:18:02;16.80;99.90
2162;DHT22;1087;50.226;8.682;2023-05-10T01:20:32;16.60;99.90
2162;DHT22;1087;50.226;8.682;2023-05-10T01:31:37;16.80;99.90
2162;DHT22;1087;50.226;8.682;2023-05-10T01:34:16;16.90;99.90
2162;DHT22;1087;50.226;8.682;2023-05-10T01:36:56;16.70;99.90
2162;DHT22;1087;50.226;8.682;2023-05-10T01:39:29;16.60;99.90
2162;DHT22;1087;50.226;8.682;2023-05-10T01:42:01;16.50;99.90
2162;DHT22;1087;50.226;8.682;2023-05-10T01:44:37;16.50;99.90
2162;DHT22;1087;50.226;8.682;2023-05-10T01:47:07;16.50;99.90
2162;DHT22;1087;50.226;8.682;2023-05-10T01:49:39;16.60;99.90
2162;DHT22;1087;50.226;8.682;2023-05-10T01:52:10;16.60;99.90
2162;DHT22;1087;50.226;8.682;2023-05-10T01:54:59;16.60;99.90
2162;DHT22;1087;50.226;8.682;2023-05-10T01:57:28;16.50;99.90
2162;DHT22;1087;50.226;8.682;2023-05-10T01:59:59;16.30;99.90
2162;DHT22;1087;50.226;8.682;2023-05-10T02:02:27;16.30;99.90
2162;DHT22;1087;50.226;8.682;2023-05-10T02:04:54;16.40;99.90
2162;DHT22;1087;50.226;8.682;2023-05-10T02:07:21;16.50;99.90
2162;DHT22;1087;50.226;8.682;2023-05-10T02:09:47;16.60;99.90
2162;DHT22;1087;50.226;8.682;2023-05-10T02:12:14;16.40;99.90
2162;DHT22;1087;50.226;8.682;2023-05-10T02:14:41;16.50;99.90
2162;DHT22;1087;50.226;8.682;2023-05-10T02:17:08;16.50;99.90
2162;DHT22;1087;50.226;8.682;2023-05-10T02:19:36;16.50;99.90
2162;DHT22;1087;50.226;8.682;2023-05-10T02:22:03;16.40;99.90
2162;DHT22;1087;50.226;8.682;2023-05-10T02:24:29;16.50;99.90
2162;DHT22;1087;50.226;8.682;2023-05-10T02:26:56;16.60;99.90
2162;DHT22;1087;50.226;8.682;2023-05-10T02:29:23;16.60;99.90
2162;DHT22;1087;50.226;8.682;2023-05-10T02:31:51;16.60;99.90
2162;DHT22;1087;50.226;8.682;2023-05-10T02:34:18;16.50;99.90
2162;DHT22;1087;50.226;8.682;2023-05-10T02:36:44;16.60;99.90
2162;DHT22;1087;50.226;8.682;2023-05-10T02:39:11;16.40;99.90
2162;DHT22;1087;50.226;8.682;2023-05-10T02:41:40;16.40;99.90
2162;DHT22;1087;50.226;8.682;2023-05-10T02:44:07;16.30;99.90
2162;DHT22;1087;50.226;8.682;2023-05-10T02:46:34;16.40;99.90
2162;DHT22;1087;50.226;8.682;2023-05-10T02:49:00;16.40;99.90
2162;DHT22;1087;50.226;8.682;2023-05-10T02:51:30;16.40;99.90
2162;DHT22;1087;50.226;8.682;2023-05-10T02:53:57;16.30;99.90
2162;DHT22;1087;50.226;8.682;2023-05-10T02:56:33;16.30;99.90
2162;DHT22;1087;50.226;8.682;2023-05-10T02:58:59;16.30;99.90
2162;DHT22;1087;50.226;8.682;2023-05-10T03:01:25;16.30;99.90
2162;DHT22;1087;50.226;8.682;2023-05-10T03:03:51;16.30;99.90
2162;DHT22;1087;50.226;8.682;2023-05-10T03:06:16;16.30;99.90
2162;DHT22;1087;50.226;8.682;2023-05-10T03:08:43;16.30;99.90
2162;DHT22;1087;50.226;8.682;2023-05-10T03:14:21;16.20;99.90
2162;DHT22;1087;50.226;8.682;2023-05-10T03:17:06;16.10;99.90
2162;DHT22;1087;50.226;8.682;2023-05-10T03:19:46;16.20;99.90
2162;DHT22;1087;50.226;8.682;2023-05-10T03:22:21;16.30;99.90
2162;DHT22;1087;50.226;8.682;2023-05-10T03:24:48;16.20;99.90
2162;DHT22;1087;50.226;8.682;2023-05-10T03:27:15;16.10;99.90
2162;DHT22;1087;50.226;8.682;2023-05-10T03:29:41;16.20;99.90
2162;DHT22;1087;50.226;8.682;2023-05-10T03:32:07;16.20;99.90
2162;DHT22;1087;50.226;8.682;2023-05-10T03:34:33;16.20;99.90
2162;DHT22;1087;50.226;8.682;2023-05-10T03:36:59;16.10;99.90
2162;DHT22;1087;50.226;8.682;2023-05-10T03:39:24;16.20;99.90
2162;DHT22;1087;50.226;8.682;2023-05-10T03:41:50;16.10;99.90
2162;DHT22;1087;50.226;8.682;2023-05-10T03:44:15;16.10;99.90
2162;DHT22;1087;50.226;8.682;2023-05-10T03:46:41;16.20;99.90
2162;DHT22;1087;50.226;8.682;2023-05-10T03:49:07;16.20;99.90
2162;DHT22;1087;50.226;8.682;2023-05-10T03:51:32;16.20;99.90
2162;DHT22;1087;50.226;8.682;2023-05-10T03:53:58;16.30;99.90
2162;DHT22;1087;50.226;8.682;2023-05-10T03:56:23;16.20;99.90
2162;DHT22;1087;50.226;8.682;2023-05-10T03:58:49;16.30;99.90
2162;DHT22;1087;50.226;8.682;2023-05-10T04:01:14;16.20;99.90
2162;DHT22;1087;50.226;8.682;2023-05-10T04:03:40;16.30;99.90
2162;DHT22;1087;50.226;8.682;2023-05-10T04:06:05;16.10;99.90
2162;DHT22;1087;50.226;8.682;2023-05-10T04:08:33;16.10;99.90
2162;DHT22;1087;50.226;8.682;2023-05-10T04:11:17;16.20;99.90
2162;DHT22;1087;50.226;8.682;2023-05-10T04:13:42;16.20;99.90
2162;DHT22;1087;50.226;8.682;2023-05-10T04:16:08;16.20;99.90
2162;DHT22;1087;50.226;8.682;2023-05-10T04:18:34;16.20;99.90
2162;DHT22;1087;50.226;8.682;2023-05-10T04:21:00;16.20;99.90
2162;DHT22;1087;50.226;8.682;2023-05-10T04:23:26;16.20;99.90
2162;DHT22;1087;50.226;8.682;2023-05-10T04:25:52;16.20;99.90
2162;DHT22;1087;50.226;8.682;2023-05-10T04:28:18;16.20;99.90
2162;DHT22;1087;50.226;8.682;2023-05-10T04:30:43;16.20;99.90
2162;DHT22;1087;50.226;8.682;2023-05-10T04:33:09;16.10;99.90
2162;DHT22;1087;50.226;8.682;2023-05-10T04:35:35;16.10;99.90
2162;DHT22;1087;50.226;8.682;2023-05-10T04:38:00;16.10;99.90
2162;DHT22;1087;50.226;8.682;2023-05-10T04:40:26;16.20;99.90
2162;DHT22;1087;50.226;8.682;2023-05-10T04:42:51;16.20;99.90
2162;DHT22;1087;50.226;8.682;2023-05-10T04:45:17;16.20;99.90
2162;DHT22;1087;50.226;8.682;2023-05-10T04:47:42;16.10;99.90
2162;DHT22;1087;50.226;8.682;2023-05-10T04:50:08;16.20;99.90
2162;DHT22;1087;50.226;8.682;2023-05-10T04:52:34;16.00;99.90
2162;DHT22;1087;50.226;8.682;2023-05-10T04:54:59;16.10;99.90
2162;DHT22;1087;50.226;8.682;2023-05-10T04:57:25;16.20;99.90
2162;DHT22;1087;50.226;8.682;2023-05-10T04:59:50;16.30;99.90
2162;DHT22;1087;50.226;8.682;2023-05-10T05:02:16;16.30;99.90
2162;DHT22;1087;50.226;8.682;2023-05-10T05:04:41;16.30;99.90
2162;DHT22;1087;50.226;8.682;2023-05-10T05:07:07;16.40;99.90
2162;DHT22;1087;50.226;8.682;2023-05-10T05:09:33;16.40;99.90
2162;DHT22;1087;50.226;8.682;2023-05-10T05:11:58;16.30;99.90
2162;DHT22;1087;50.226;8.682;2023-05-10T05:14:24;16.40;99.90
2162;DHT22;1087;50.226;8.682;2023-05-10T05:16:52;16.30;99.90
2162;DHT22;1087;50.226;8.682;2023-05-10T05:19:18;16.40;99.90
2162;DHT22;1087;50.226;8.682;2023-05-10T05:21:43;16.40;99.90
2162;DHT22;1087;50.226;8.682;2023-05-10T05:24:09;16.40;99.90
2162;DHT22;1087;50.226;8.682;2023-05-10T05:26:35;16.30;99.90
2162;DHT22;1087;50.226;8.682;2023-05-10T05:29:02;16.30;99.90
2162;DHT22;1087;50.226;8.682;2023-05-10T05:31:28;16.40;99.90
2162;DHT22;1087;50.226;8.682;2023-05-10T05:33:54;16.30;99.90
2162;DHT22;1087;50.226;8.682;2023-05-10T05:36:19;16.30;99.90
2162;DHT22;1087;50.226;8.682;2023-05-10T05:38:45;16.40;99.90
2162;DHT22;1087;50.226;8.682;2023-05-10T05:41:10;16.50;99.90
2162;DHT22;1087;50.226;8.682;2023-05-10T05:43:36;16.50;99.90
2162;DHT22;1087;50.226;8.682;2023-05-10T05:46:01;16.30;99.90
2162;DHT22;1087;50.226;8.682;2023-05-10T05:48:27;16.30;99.90
2162;DHT22;1087;50.226;8.682;2023-05-10T05:50:56;16.20;99.90
2162;DHT22;1087;50.226;8.682;2023-05-10T05:53:22;16.20;99.90
2162;DHT22;1087;50.226;8.682;2023-05-10T05:55:52;16.20;99.90
2162;DHT22;1087;50.226;8.682;2023-05-10T05:58:19;16.20;99.90
2162;DHT22;1087;50.226;8.682;2023-05-10T06:00:45;16.30;99.90
2162;DHT22;1087;50.226;8.682;2023-05-10T06:03:10;16.20;99.90
2162;DHT22;1087;50.226;8.682;2023-05-10T06:05:35;16.30;99.90
2162;DHT22;1087;50.226;8.682;2023-05-10T06:08:01;16.30;99.90
2162;DHT22;1087;50.226;8.682;2023-05-10T06:10:26;16.30;99.90
2162;DHT22;1087;50.226;8.682;2023-05-10T06:12:52;16.30;99.90
2162;DHT22;1087;50.226;8.682;2023-05-10T06:15:18;16.40;99.90
2162;DHT22;1087;50.226;8.682;2023-05-10T06:17:43;16.40;99.90
2162;DHT22;1087;50.226;8.682;2023-05-10T06:20:09;16.30;99.90
2162;DHT22;1087;50.226;8.682;2023-05-10T06:22:35;16.20;99.90
2162;DHT22;1087;50.226;8.682;2023-05-10T06:25:01;16.20;99.90
2162;DHT22;1087;50.226;8.682;2023-05-10T06:27:27;16.20;99.90
2162;DHT22;1087;50.226;8.682;2023-05-10T06:29:52;16.20;99.90
2162;DHT22;1087;50.226;8.682;2023-05-10T06:32:18;16.30;99.90
2162;DHT22;1087;50.226;8.682;2023-05-10T06:34:43;16.20;99.90
2162;DHT22;1087;50.226;8.682;2023-05-10T06:37:09;16.30;99.90
2162;DHT22;1087;50.226;8.682;2023-05-10T06:39:35;16.30;99.90
2162;DHT22;1087;50.226;8.682;2023-05-10T06:42:02;16.30;99.90
2162;DHT22;1087;50.226;8.682;2023-05-10T06:44:28;16.40;99.90
2162;DHT22;1087;50.226;8.682;2023-05-10T06:46:54;16.30;99.90
2162;DHT22;1087;50.226;8.682;2023-05-10T06:49:21;16.30;99.90
2162;DHT22;1087;50.226;8.682;2023-05-10T06:51:47;16.30;99.90
2162;DHT22;1087;50.226;8.682;2023-05-10T06:54:13;16.30;99.90
2162;DHT22;1087;50.226;8.682;2023-05-10T06:56:39;16.40;99.90
2162;DHT22;1087;50.226;8.682;2023-05-10T06:59:04;16.40;99.90
2162;DHT22;1087;50.226;8.682;2023-05-10T07:01:30;16.40;99.90
2162;DHT22;1087;50.226;8.682;2023-05-10T07:03:55;16.50;99.90
2162;DHT22;1087;50.226;8.682;2023-05-10T07:06:21;16.30;99.90
2162;DHT22;1087;50.226;8.682;2023-05-10T07:08:46;16.40;99.90
2162;DHT22;1087;50.226;8.682;2023-05-10T07:11:12;16.40;99.90
2162;DHT22;1087;50.226;8.682;2023-05-10T07:13:37;16.50;99.90
2162;DHT22;1087;50.226;8.682;2023-05-10T07:16:06;16.50;99.90
2162;DHT22;1087;50.226;8.682;2023-05-10T07:18:33;16.30;99.90
2162;DHT22;1087;50.226;8.682;2023-05-10T07:20:59;16.30;99.90
2162;DHT22;1087;50.226;8.682;2023-05-10T07:23:25;16.30;99.90
2162;DHT22;1087;50.226;8.682;2023-05-10T07:25:51;16.40;99.90
2162;DHT22;1087;50.226;8.682;2023-05-10T07:28:17;16.50;99.90
2162;DHT22;1087;50.226;8.682;2023-05-10T07:30:44;16.50;99.90
2162;DHT22;1087;50.226;8.682;2023-05-10T07:33:10;16.40;99.90
2162;DHT22;1087;50.226;8.682;2023-05-10T07:35:36;16.40;99.90
2162;DHT22;1087;50.226;8.682;2023-05-10T07:38:02;16.50;99.90
2162;DHT22;1087;50.226;8.682;2023-05-10T07:40:28;16.50;99.90
2162;DHT22;1087;50.226;8.682;2023-05-10T07:42:54;16.40;99.90
2162;DHT22;1087;50.226;8.682;2023-05-10T07:45:19;16.50;99.90
2162;DHT22;1087;50.226;8.682;2023-05-10T07:47:45;16.60;99.90
2162;DHT22;1087;50.226;8.682;2023-05-10T07:50:10;16.70;99.90
2162;DHT22;1087;50.226;8.682;2023-05-10T07:52:36;16.70;99.90
2162;DHT22;1087;50.226;8.682;2023-05-10T07:55:02;16.70;99.90
2162;DHT22;1087;50.226;8.682;2023-05-10T07:57:27;16.70;99.90
2162;DHT22;1087;50.226;8.682;2023-05-10T07:59:53;16.70;99.90
2162;DHT22;1087;50.226;8.682;2023-05-10T08:02:18;16.70;99.90
2162;DHT22;1087;50.226;8.682;2023-05-10T08:04:44;16.50;99.90
2162;DHT22;1087;50.226;8.682;2023-05-10T08:07:09;16.60;99.90
2162;DHT22;1087;50.226;8.682;2023-05-10T08:09:35;16.60;99.90
2162;DHT22;1087;50.226;8.682;2023-05-10T08:12:01;16.60;99.90
2162;DHT22;1087;50.226;8.682;2023-05-10T08:14:28;16.60;99.90
2162;DHT22;1087;50.226;8.682;2023-05-10T08:16:54;16.60;99.90
2162;DHT22;1087;50.226;8.682;2023-05-10T08:19:20;16.60;99.90
2162;DHT22;1087;50.226;8.682;2023-05-10T08:21:47;16.70;99.90
2162;DHT22;1087;50.226;8.682;2023-05-10T08:24:12;16.70;99.90
2162;DHT22;1087;50.226;8.682;2023-05-10T08:26:38;16.60;99.90
2162;DHT22;1087;50.226;8.682;2023-05-10T08:29:04;16.60;99.90
2162;DHT22;1087;50.226;8.682;2023-05-10T08:31:29;16.60;99.90
2162;DHT22;1087;50.226;8.682;2023-05-10T08:33:55;16.80;99.90
2162;DHT22;1087;50.226;8.682;2023-05-10T08:36:20;16.70;99.90
2162;DHT22;1087;50.226;8.682;2023-05-10T08:38:52;16.60;99.90
2162;DHT22;1087;50.226;8.682;2023-05-10T08:41:22;16.70;99.90
2162;DHT22;1087;50.226;8.682;2023-05-10T08:43:50;16.80;99.90
2162;DHT22;1087;50.226;8.682;2023-05-10T08:46:17;16.80;99.90
2162;DHT22;1087;50.226;8.682;2023-05-10T08:48:47;16.90;99.90
2162;DHT22;1087;50.226;8.682;2023-05-10T08:51:14;16.90;99.90
2162;DHT22;1087;50.226;8.682;2023-05-10T08:53:40;17.00;99.90
2162;DHT22;1087;50.226;8.682;2023-05-10T08:56:06;17.00;99.90
2162;DHT22;1087;50.226;8.682;2023-05-10T08:58:32;17.00;99.90
2162;DHT22;1087;50.226;8.682;2023-05-10T09:00:58;16.90;99.90
2162;DHT22;1087;50.226;8.682;2023-05-10T09:03:24;17.00;99.90
2162;DHT22;1087;50.226;8.682;2023-05-10T09:05:49;17.00;99.90
2162;DHT22;1087;50.226;8.682;2023-05-10T09:08:16;16.90;99.90
2162;DHT22;1087;50.226;8.682;2023-05-10T09:10:45;17.00;99.90
2162;DHT22;1087;50.226;8.682;2023-05-10T09:13:13;17.00;99.90
2162;DHT22;1087;50.226;8.682;2023-05-10T09:15:39;17.00;99.90
2162;DHT22;1087;50.226;8.682;2023-05-10T09:18:05;17.00;99.90
2162;DHT22;1087;50.226;8.682;2023-05-10T09:20:30;16.90;99.90
2162;DHT22;1087;50.226;8.682;2023-05-10T09:22:56;17.00;99.90
2162;DHT22;1087;50.226;8.682;2023-05-10T09:25:22;16.90;99.90
2162;DHT22;1087;50.226;8.682;2023-05-10T09:27:48;16.70;99.90
2162;DHT22;1087;50.226;8.682;2023-05-10T09:30:23;16.80;99.90
2162;DHT22;1087;50.226;8.682;2023-05-10T09:32:50;16.90;99.90
2162;DHT22;1087;50.226;8.682;2023-05-10T09:35:18;17.00;99.90
2162;DHT22;1087;50.226;8.682;2023-05-10T09:37:46;17.00;99.90
2162;DHT22;1087;50.226;8.682;2023-05-10T09:40:20;17.00;99.90
2162;DHT22;1087;50.226;8.682;2023-05-10T09:42:53;17.10;99.90
2162;DHT22;1087;50.226;8.682;2023-05-10T09:45:20;17.10;99.90
2162;DHT22;1087;50.226;8.682;2023-05-10T09:47:46;17.20;99.90
2162;DHT22;1087;50.226;8.682;2023-05-10T09:50:11;17.20;99.90
2162;DHT22;1087;50.226;8.682;2023-05-10T09:52:48;17.30;99.90
2162;DHT22;1087;50.226;8.682;2023-05-10T09:55:14;17.40;99.90
2162;DHT22;1087;50.226;8.682;2023-05-10T09:57:39;17.50;99.90
2162;DHT22;1087;50.226;8.682;2023-05-10T10:00:06;17.50;99.90
2162;DHT22;1087;50.226;8.682;2023-05-10T10:02:33;17.60;99.90
2162;DHT22;1087;50.226;8.682;2023-05-10T10:05:01;17.50;99.90
2162;DHT22;1087;50.226;8.682;2023-05-10T10:07:26;17.50;99.90
2162;DHT22;1087;50.226;8.682;2023-05-10T10:09:53;17.50;99.90
2162;DHT22;1087;50.226;8.682;2023-05-10T10:12:19;17.60;99.90
2162;DHT22;1087;50.226;8.682;2023-05-10T10:14:49;17.70;99.90
2162;DHT22;1087;50.226;8.682;2023-05-10T10:17:16;17.60;99.90
2162;DHT22;1087;50.226;8.682;2023-05-10T10:19:42;17.60;99.90
2162;DHT22;1087;50.226;8.682;2023-05-10T10:22:07;17.60;99.90
2162;DHT22;1087;50.226;8.682;2023-05-10T10:24:33;17.60;99.90
2162;DHT22;1087;50.226;8.682;2023-05-10T10:27:24;17.70;99.90
2162;DHT22;1087;50.226;8.682;2023-05-10T10:30:07;17.70;99.90
2162;DHT22;1087;50.226;8.682;2023-05-10T10:33:13;17.60;99.90
2162;DHT22;1087;50.226;8.682;2023-05-10T10:35:45;17.70;99.90
2162;DHT22;1087;50.226;8.682;2023-05-10T10:38:12;17.70;99.90
2162;DHT22;1087;50.226;8.682;2023-05-10T10:40:38;17.60;99.90
2162;DHT22;1087;50.226;8.682;2023-05-10T10:43:24;17.70;99.90
2162;DHT22;1087;50.226;8.682;2023-05-10T10:46:11;17.80;99.90
2162;DHT22;1087;50.226;8.682;2023-05-10T10:48:41;17.90;99.90
2162;DHT22;1087;50.226;8.682;2023-05-10T10:51:13;17.80;99.90
2162;DHT22;1087;50.226;8.682;2023-05-10T10:53:40;17.80;99.90
2162;DHT22;1087;50.226;8.682;2023-05-10T10:56:13;17.80;99.90
2162;DHT22;1087;50.226;8.682;2023-05-10T10:58:41;17.80;99.90
2162;DHT22;1087;50.226;8.682;2023-05-10T11:01:17;17.80;99.90
2162;DHT22;1087;50.226;8.682;2023-05-10T11:06:33;17.70;99.90
2162;DHT22;1087;50.226;8.682;2023-05-10T11:09:07;17.60;99.90
2162;DHT22;1087;50.226;8.682;2023-05-10T11:11:35;17.50;99.90
2162;DHT22;1087;50.226;8.682;2023-05-10T11:14:04;17.60;99.90
2162;DHT22;1087;50.226;8.682;2023-05-10T11:16:41;17.50;99.90
2162;DHT22;1087;50.226;8.682;2023-05-10T11:19:10;17.40;99.90
2162;DHT22;1087;50.226;8.682;2023-05-10T11:21:51;17.10;99.90
2162;DHT22;1087;50.226;8.682;2023-05-10T11:24:36;17.00;99.90
2162;DHT22;1087;50.226;8.682;2023-05-10T11:27:02;17.10;99.90
2162;DHT22;1087;50.226;8.682;2023-05-10T11:29:28;17.00;99.90
2162;DHT22;1087;50.226;8.682;2023-05-10T11:31:57;16.90;99.90
2162;DHT22;1087;50.226;8.682;2023-05-10T11:34:32;17.00;99.90
2162;DHT22;1087;50.226;8.682;2023-05-10T11:37:00;16.90;99.90
2162;DHT22;1087;50.226;8.682;2023-05-10T11:39:31;17.10;99.90
2162;DHT22;1087;50.226;8.682;2023-05-10T11:41:58;17.20;99.90
2162;DHT22;1087;50.226;8.682;2023-05-10T11:44:32;17.10;99.90
2162;DHT22;1087;50.226;8.682;2023-05-10T11:46:59;17.10;99.90
2162;DHT22;1087;50.226;8.682;2023-05-10T11:49:25;17.20;99.90
2162;DHT22;1087;50.226;8.682;2023-05-10T11:51:51;17.30;99.90
2162;DHT22;1087;50.226;8.682;2023-05-10T11:54:16;17.30;99.90
2162;DHT22;1087;50.226;8.682;2023-05-10T11:56:42;17.30;99.90
2162;DHT22;1087;50.226;8.682;2023-05-10T11:59:08;17.30;99.90
2162;DHT22;1087;50.226;8.682;2023-05-10T12:01:33;17.20;99.90
2162;DHT22;1087;50.226;8.682;2023-05-10T12:03:59;16.90;99.90
2162;DHT22;1087;50.226;8.682;2023-05-10T12:06:30;16.90;99.90
2162;DHT22;1087;50.226;8.682;2023-05-10T12:08:57;16.90;99.90
2162;DHT22;1087;50.226;8.682;2023-05-10T12:11:27;17.00;99.90
2162;DHT22;1087;50.226;8.682;2023-05-10T12:13:54;16.90;99.90
2162;DHT22;1087;50.226;8.682;2023-05-10T12:16:25;16.90;99.90
2162;DHT22;1087;50.226;8.682;2023-05-10T12:18:52;16.90;99.90
2162;DHT22;1087;50.226;8.682;2023-05-10T12:21:22;17.00;99.90
2162;DHT22;1087;50.226;8.682;2023-05-10T12:23:56;17.10;99.90
2162;DHT22;1087;50.226;8.682;2023-05-10T12:26:24;17.10;99.90
2162;DHT22;1087;50.226;8.682;2023-05-10T12:28:53;17.30;99.90
2162;DHT22;1087;50.226;8.682;2023-05-10T12:31:18;17.30;99.90
2162;DHT22;1087;50.226;8.682;2023-05-10T12:33:44;17.40;99.90
2162;DHT22;1087;50.226;8.682;2023-05-10T12:36:15;17.40;99.90
2162;DHT22;1087;50.226;8.682;2023-05-10T12:38:42;17.40;99.90
2162;DHT22;1087;50.226;8.682;2023-05-10T12:41:10;17.60;99.90
2162;DHT22;1087;50.226;8.682;2023-05-10T12:43:36;17.60;99.90
2162;DHT22;1087;50.226;8.682;2023-05-10T12:46:07;17.70;99.90
2162;DHT22;1087;50.226;8.682;2023-05-10T12:48:33;17.80;99.90
2162;DHT22;1087;50.226;8.682;2023-05-10T12:51:00;17.80;99.90
2162;DHT22;1087;50.226;8.682;2023-05-10T12:53:25;17.80;99.90
2162;DHT22;1087;50.226;8.682;2023-05-10T12:55:51;17.70;99.90
2162;DHT22;1087;50.226;8.682;2023-05-10T12:58:17;17.80;99.90
2162;DHT22;1087;50.226;8.682;2023-05-10T13:00:42;17.80;99.90
2162;DHT22;1087;50.226;8.682;2023-05-10T13:03:09;17.70;99.90
2162;DHT22;1087;50.226;8.682;2023-05-10T13:05:35;17.70;99.90
2162;DHT22;1087;50.226;8.682;2023-05-10T13:08:01;17.80;99.90
2162;DHT22;1087;50.226;8.682;2023-05-10T13:10:27;17.90;99.90
2162;DHT22;1087;50.226;8.682;2023-05-10T13:12:53;18.00;99.90
2162;DHT22;1087;50.226;8.682;2023-05-10T13:15:18;18.00;99.90
2162;DHT22;1087;50.226;8.682;2023-05-10T13:17:44;17.90;99.90
2162;DHT22;1087;50.226;8.682;2023-05-10T13:20:10;17.90;99.90
2162;DHT22;1087;50.226;8.682;2023-05-10T13:22:36;18.00;99.90
2162;DHT22;1087;50.226;8.682;2023-05-10T13:25:02;18.00;99.90
2162;DHT22;1087;50.226;8.682;2023-05-10T13:27:28;18.10;99.90
2162;DHT22;1087;50.226;8.682;2023-05-10T13:29:54;18.10;99.90
2162;DHT22;1087;50.226;8.682;2023-05-10T13:32:20;18.10;99.90
2162;DHT22;1087;50.226;8.682;2023-05-10T13:34:46;18.10;99.90
2162;DHT22;1087;50.226;8.682;2023-05-10T13:37:12;18.20;99.90
2162;DHT22;1087;50.226;8.682;2023-05-10T13:39:37;18.20;99.90
2162;DHT22;1087;50.226;8.682;2023-05-10T13:42:03;18.10;99.90
2162;DHT22;1087;50.226;8.682;2023-05-10T13:44:29;18.20;99.90
2162;DHT22;1087;50.226;8.682;2023-05-10T13:46:56;18.10;99.90
2162;DHT22;1087;50.226;8.682;2023-05-10T13:49:21;18.10;99.90
2162;DHT22;1087;50.226;8.682;2023-05-10T13:51:47;18.00;99.90
2162;DHT22;1087;50.226;8.682;2023-05-10T13:54:13;17.90;99.90
2162;DHT22;1087;50.226;8.682;2023-05-10T13:56:38;17.80;99.90
2162;DHT22;1087;50.226;8.682;2023-05-10T13:59:04;17.80;99.90
2162;DHT22;1087;50.226;8.682;2023-05-10T14:01:30;17.80;99.90
2162;DHT22;1087;50.226;8.682;2023-05-10T14:03:56;17.90;99.90
2162;DHT22;1087;50.226;8.682;2023-05-10T14:06:22;17.90;99.90
2162;DHT22;1087;50.226;8.682;2023-05-10T14:08:47;17.90;99.90
2162;DHT22;1087;50.226;8.682;2023-05-10T14:11:14;17.90;99.90
2162;DHT22;1087;50.226;8.682;2023-05-10T14:13:40;18.00;99.90
2162;DHT22;1087;50.226;8.682;2023-05-10T14:16:06;18.00;99.90
2162;DHT22;1087;50.226;8.682;2023-05-10T14:18:31;17.80;99.90
2162;DHT22;1087;50.226;8.682;2023-05-10T14:20:57;17.90;99.90
2162;DHT22;1087;50.226;8.682;2023-05-10T14:23:23;18.00;99.90
2162;DHT22;1087;50.226;8.682;2023-05-10T14:25:53;18.00;99.90
2162;DHT22;1087;50.226;8.682;2023-05-10T14:28:19;18.10;99.90
2162;DHT22;1087;50.226;8.682;2023-05-10T14:30:46;18.10;99.90
2162;DHT22;1087;50.226;8.682;2023-05-10T14:33:11;18.20;99.90
2162;DHT22;1087;50.226;8.682;2023-05-10T14:35:37;18.10;99.90
2162;DHT22;1087;50.226;8.682;2023-05-10T14:38:03;17.70;99.90
2162;DHT22;1087;50.226;8.682;2023-05-10T14:40:29;17.90;99.90
2162;DHT22;1087;50.226;8.682;2023-05-10T14:42:55;17.90;99.90
2162;DHT22;1087;50.226;8.682;2023-05-10T14:45:21;18.00;99.90
2162;DHT22;1087;50.226;8.682;2023-05-10T14:47:48;18.10;99.90
2162;DHT22;1087;50.226;8.682;2023-05-10T14:50:14;18.10;99.90
2162;DHT22;1087;50.226;8.682;2023-05-10T14:52:39;18.10;99.90
2162;DHT22;1087;50.226;8.682;2023-05-10T14:55:05;18.10;99.90
2162;DHT22;1087;50.226;8.682;2023-05-10T14:57:31;18.20;99.90
2162;DHT22;1087;50.226;8.682;2023-05-10T14:59:57;18.30;99.90
2162;DHT22;1087;50.226;8.682;2023-05-10T15:02:23;18.20;99.90
2162;DHT22;1087;50.226;8.682;2023-05-10T15:04:48;18.30;99.90
2162;DHT22;1087;50.226;8.682;2023-05-10T15:07:14;18.30;99.90
2162;DHT22;1087;50.226;8.682;2023-05-10T15:09:41;18.30;99.90
2162;DHT22;1087;50.226;8.682;2023-05-10T15:12:07;18.30;99.90
2162;DHT22;1087;50.226;8.682;2023-05-10T15:14:32;18.30;99.90
2162;DHT22;1087;50.226;8.682;2023-05-10T15:16:58;18.30;99.90
2162;DHT22;1087;50.226;8.682;2023-05-10T15:19:24;18.40;99.90
2162;DHT22;1087;50.226;8.682;2023-05-10T15:21:49;18.40;99.90
2162;DHT22;1087;50.226;8.682;2023-05-10T15:24:15;18.50;99.90
2162;DHT22;1087;50.226;8.682;2023-05-10T15:26:41;18.50;99.90
2162;DHT22;1087;50.226;8.682;2023-05-10T15:29:06;18.50;99.90
2162;DHT22;1087;50.226;8.682;2023-05-10T15:31:32;18.50;99.90
2162;DHT22;1087;50.226;8.682;2023-05-10T15:34:00;18.60;99.90
2162;DHT22;1087;50.226;8.682;2023-05-10T15:36:26;18.60;99.90
2162;DHT22;1087;50.226;8.682;2023-05-10T15:38:52;18.60;99.90
2162;DHT22;1087;50.226;8.682;2023-05-10T15:41:18;18.60;99.90
2162;DHT22;1087;50.226;8.682;2023-05-10T15:43:43;18.50;99.90
2162;DHT22;1087;50.226;8.682;2023-05-10T15:46:09;18.50;99.90
2162;DHT22;1087;50.226;8.682;2023-05-10T15:48:34;18.50;99.90
2162;DHT22;1087;50.226;8.682;2023-05-10T15:51:00;18.60;99.90
2162;DHT22;1087;50.226;8.682;2023-05-10T15:53:25;18.60;99.90
2162;DHT22;1087;50.226;8.682;2023-05-10T15:55:51;18.70;99.90
2162;DHT22;1087;50.226;8.682;2023-05-10T15:58:16;18.70;99.90
2162;DHT22;1087;50.226;8.682;2023-05-10T16:00:42;18.80;99.90
2162;DHT22;1087;50.226;8.682;2023-05-10T16:03:07;18.80;99.90
2162;DHT22;1087;50.226;8.682;2023-05-10T16:05:33;18.70;99.90
2162;DHT22;1087;50.226;8.682;2023-05-10T16:07:59;18.70;99.90
2162;DHT22;1087;50.226;8.682;2023-05-10T16:10:26;18.80;99.90
2162;DHT22;1087;50.226;8.682;2023-05-10T16:12:55;18.80;99.90
2162;DHT22;1087;50.226;8.682;2023-05-10T16:15:20;18.70;99.90